sensor_id;sensor_type;location;lat;lon;timestamp;temperature;humidity
3876;DHT22;1953;51.222;6.624;2023-02-28T00:01:50;2.60;1.00
3876;DHT22;1953;51.222;6.624;2023-02-28T00:09:59;2.40;1.00
3876;DHT22;1953;51.222;6.624;2023-02-28T00:14:42;2.30;1.00
3876;DHT22;1953;51.222;6.624;2023-02-28T00:19:24;2.20;1.00
3876;DHT22;1953;51.222;6.624;2023-02-28T00:24:07;2.20;1.00
3876;DHT22;1953;51.222;6.624;2023-02-28T00:28:51;2.20;1.00
3876;DHT22;1953;51.222;6.624;2023-02-28T00:33:33;2.20;1.00
3876;DHT22;1953;51.222;6.624;2023-02-28T00:38:16;2.10;1.00
3876;DHT22;1953;51.222;6.624;2023-02-28T00:42:58;2.10;1.00
3876;DHT22;1953;51.222;6.624;2023-02-28T00:47:42;2.20;1.00
3876;DHT22;1953;51.222;6.624;2023-02-28T00:52:25;2.20;1.00
3876;DHT22;1953;51.222;6.624;2023-02-28T00:57:07;2.10;1.00
3876;DHT22;1953;51.222;6.624;2023-02-28T01:01:49;2.10;1.00
3876;DHT22;1953;51.222;6.624;2023-02-28T01:06:33;2.00;1.00
3876;DHT22;1953;51.222;6.624;2023-02-28T01:11:17;2.00;1.00
3876;DHT22;1953;51.222;6.624;2023-02-28T01:15:59;2.00;1.00
3876;DHT22;1953;51.222;6.624;2023-02-28T01:20:42;2.00;1.00
3876;DHT22;1953;51.222;6.624;2023-02-28T01:25:26;2.10;1.00
3876;DHT22;1953;51.222;6.624;2023-02-28T01:30:10;2.00;1.00
3876;DHT22;1953;51.222;6.624;2023-02-28T01:34:53;1.90;1.00
3876;DHT22;1953;51.222;6.624;2023-02-28T01:39:35;1.90;1.00
3876;DHT22;1953;51.222;6.624;2023-02-28T01:45:15;1.90;1.00
3876;DHT22;1953;51.222;6.624;2023-02-28T01:50:04;1.90;1.00
3876;DHT22;1953;51.222;6.624;2023-02-28T01:54:51;1.80;1.00
3876;DHT22;1953;51.222;6.624;2023-02-28T01:59:36;1.80;1.00
3876;DHT22;1953;51.222;6.624;2023-02-28T02:04:24;1.70;1.00
3876;DHT22;1953;51.222;6.624;2023-02-28T02:09:08;1.60;1.00
3876;DHT22;1953;51.222;6.624;2023-02-28T02:14:12;1.60;1.00
3876;DHT22;1953;51.222;6.624;2023-02-28T02:19:09;1.60;1.00
3876;DHT22;1953;51.222;6.624;2023-02-28T02:24:26;1.60;1.00
3876;DHT22;1953;51.222;6.624;2023-02-28T02:29:42;1.60;1.00
3876;DHT22;1953;51.222;6.624;2023-02-28T02:34:35;1.60;1.00
3876;DHT22;1953;51.222;6.624;2023-02-28T02:39:25;1.50;1.00
3876;DHT22;1953;51.222;6.624;2023-02-28T02:44:13;1.40;1.00
3876;DHT22;1953;51.222;6.624;2023-02-28T02:48:58;1.40;1.00
3876;DHT22;1953;51.222;6.624;2023-02-28T02:53:47;1.40;1.00
3876;DHT22;1953;51.222;6.624;2023-02-28T02:58:33;1.40;1.00
3876;DHT22;1953;51.222;6.624;2023-02-28T03:03:19;1.30;1.00
3876;DHT22;1953;51.222;6.624;2023-02-28T03:08:10;1.40;1.00
3876;DHT22;1953;51.222;6.624;2023-02-28T03:13:17;1.40;1.00
3876;DHT22;1953;51.222;6.624;2023-02-28T03:18:06;1.30;1.00
3876;DHT22;1953;51.222;6.624;2023-02-28T03:23:00;1.30;1.00
3876;DHT22;1953;51.222;6.624;2023-02-28T03:27:52;1.30;1.00
3876;DHT22;1953;51.222;6.624;2023-02-28T03:32:42;1.20;1.00
3876;DHT22;1953;51.222;6.624;2023-02-28T03:37:26;1.20;1.00
3876;DHT22;1953;51.222;6.624;2023-02-28T03:42:14;1.20;1.00
3876;DHT22;1953;51.222;6.624;2023-02-28T03:47:02;1.10;1.00
3876;DHT22;1953;51.222;6.624;2023-02-28T03:51:49;1.00;1.00
3876;DHT22;1953;51.222;6.624;2023-02-28T03:56:34;1.00;1.00
3876;DHT22;1953;51.222;6.624;2023-02-28T04:01:21;1.00;1.00
3876;DHT22;1953;51.222;6.624;2023-02-28T04:06:07;1.00;1.00
3876;DHT22;1953;51.222;6.624;2023-02-28T04:10:57;1.10;1.00
3876;DHT22;1953;51.222;6.624;2023-02-28T04:15:43;1.10;1.00
3876;DHT22;1953;51.222;6.624;2023-02-28T04:20:25;1.10;1.00
3876;DHT22;1953;51.222;6.624;2023-02-28T04:25:08;1.10;1.00
3876;DHT22;1953;51.222;6.624;2023-02-28T04:29:51;1.00;1.00
3876;DHT22;1953;51.222;6.624;2023-02-28T04:34:34;1.00;1.00
3876;DHT22;1953;51.222;6.624;2023-02-28T04:39:16;1.00;1.00
3876;DHT22;1953;51.222;6.624;2023-02-28T04:44:00;0.90;1.00
3876;DHT22;1953;51.222;6.624;2023-02-28T04:48:44;0.90;1.00
3876;DHT22;1953;51.222;6.624;2023-02-28T04:53:27;0.90;1.00
3876;DHT22;1953;51.222;6.624;2023-02-28T04:58:10;0.90;1.00
3876;DHT22;1953;51.222;6.624;2023-02-28T05:02:52;0.80;1.00
3876;DHT22;1953;51.222;6.624;2023-02-28T05:07:36;0.80;1.00
3876;DHT22;1953;51.222;6.624;2023-02-28T05:12:19;0.80;1.00
3876;DHT22;1953;51.222;6.624;2023-02-28T05:17:01;0.70;1.00
3876;DHT22;1953;51.222;6.624;2023-02-28T05:21:49;0.70;1.00
3876;DHT22;1953;51.222;6.624;2023-02-28T05:26:36;0.70;1.00
3876;DHT22;1953;51.222;6.624;2023-02-28T05:31:19;0.70;1.00
3876;DHT22;1953;51.222;6.624;2023-02-28T05:36:01;0.70;1.00
3876;DHT22;1953;51.222;6.624;2023-02-28T05:40:44;0.60;1.00
3876;DHT22;1953;51.222;6.624;2023-02-28T05:45:27;0.50;1.00
3876;DHT22;1953;51.222;6.624;2023-02-28T05:50:10;0.50;1.00
3876;DHT22;1953;51.222;6.624;2023-02-28T05:54:53;0.50;1.00
3876;DHT22;1953;51.222;6.624;2023-02-28T05:59:35;0.50;1.00
3876;DHT22;1953;51.222;6.624;2023-02-28T06:04:22;0.50;1.00
3876;DHT22;1953;51.222;6.624;2023-02-28T06:09:05;0.50;1.00
3876;DHT22;1953;51.222;6.624;2023-02-28T06:13:47;0.40;1.00
3876;DHT22;1953;51.222;6.624;2023-02-28T06:18:30;0.50;1.00
3876;DHT22;1953;51.222;6.624;2023-02-28T06:23:14;0.40;1.00
3876;DHT22;1953;51.222;6.624;2023-02-28T06:27:56;0.40;1.00
3876;DHT22;1953;51.222;6.624;2023-02-28T06:32:38;0.40;1.00
3876;DHT22;1953;51.222;6.624;2023-02-28T06:37:21;0.30;1.00
3876;DHT22;1953;51.222;6.624;2023-02-28T06:42:08;0.40;1.00
3876;DHT22;1953;51.222;6.624;2023-02-28T06:46:51;0.40;1.00
3876;DHT22;1953;51.222;6.624;2023-02-28T06:51:33;0.40;1.00
3876;DHT22;1953;51.222;6.624;2023-02-28T06:56:17;0.40;1.00
3876;DHT22;1953;51.222;6.624;2023-02-28T07:01:01;0.50;1.00
3876;DHT22;1953;51.222;6.624;2023-02-28T07:05:43;0.50;1.00
3876;DHT22;1953;51.222;6.624;2023-02-28T07:10:26;0.60;1.00
3876;DHT22;1953;51.222;6.624;2023-02-28T07:15:09;0.60;1.00
3876;DHT22;1953;51.222;6.624;2023-02-28T07:19:53;0.60;1.00
3876;DHT22;1953;51.222;6.624;2023-02-28T07:24:35;0.70;1.00
3876;DHT22;1953;51.222;6.624;2023-02-28T07:29:19;0.70;1.00
3876;DHT22;1953;51.222;6.624;2023-02-28T07:34:01;0.80;1.00
3876;DHT22;1953;51.222;6.624;2023-02-28T07:38:47;0.90;1.00
3876;DHT22;1953;51.222;6.624;2023-02-28T07:43:31;1.00;1.00
3876;DHT22;1953;51.222;6.624;2023-02-28T07:48:13;1.10;1.00
3876;DHT22;1953;51.222;6.624;2023-02-28T07:52:56;1.20;1.00
3876;DHT22;1953;51.222;6.624;2023-02-28T07:57:40;1.30;1.00
3876;DHT22;1953;51.222;6.624;2023-02-28T08:02:23;1.40;1.00
3876;DHT22;1953;51.222;6.624;2023-02-28T08:07:05;1.60;1.00
3876;DHT22;1953;51.222;6.624;2023-02-28T08:11:48;1.70;1.00
3876;DHT22;1953;51.222;6.624;2023-02-28T08:16:31;1.80;1.00
3876;DHT22;1953;51.222;6.624;2023-02-28T08:21:14;1.90;1.00
3876;DHT22;1953;51.222;6.624;2023-02-28T08:25:56;2.10;1.00
3876;DHT22;1953;51.222;6.624;2023-02-28T08:30:39;2.30;1.00
3876;DHT22;1953;51.222;6.624;2023-02-28T08:35:23;2.50;1.00
3876;DHT22;1953;51.222;6.624;2023-02-28T08:40:07;2.70;1.00
3876;DHT22;1953;51.222;6.624;2023-02-28T08:44:49;2.90;1.00
3876;DHT22;1953;51.222;6.624;2023-02-28T08:49:32;2.90;1.00
3876;DHT22;1953;51.222;6.624;2023-02-28T08:54:16;3.10;1.00
3876;DHT22;1953;51.222;6.624;2023-02-28T08:59:00;3.30;1.00
3876;DHT22;1953;51.222;6.624;2023-02-28T09:03:43;3.50;1.00
3876;DHT22;1953;51.222;6.624;2023-02-28T09:08:28;3.60;1.00
3876;DHT22;1953;51.222;6.624;2023-02-28T09:13:12;3.70;1.00
3876;DHT22;1953;51.222;6.624;2023-02-28T09:17:55;3.70;1.00
3876;DHT22;1953;51.222;6.624;2023-02-28T09:22:37;3.90;1.00
3876;DHT22;1953;51.222;6.624;2023-02-28T09:27:19;4.00;1.00
3876;DHT22;1953;51.222;6.624;2023-02-28T09:32:04;4.20;1.00
3876;DHT22;1953;51.222;6.624;2023-02-28T09:36:46;4.20;1.00
3876;DHT22;1953;51.222;6.624;2023-02-28T09:41:36;4.30;1.00
3876;DHT22;1953;51.222;6.624;2023-02-28T09:46:28;4.40;1.00
3876;DHT22;1953;51.222;6.624;2023-02-28T09:51:21;4.30;1.00
3876;DHT22;1953;51.222;6.624;2023-02-28T09:56:09;4.40;1.00
3876;DHT22;1953;51.222;6.624;2023-02-28T10:01:02;4.60;1.00
3876;DHT22;1953;51.222;6.624;2023-02-28T10:05:51;4.80;1.00
3876;DHT22;1953;51.222;6.624;2023-02-28T10:10:39;5.00;1.00
3876;DHT22;1953;51.222;6.624;2023-02-28T10:15:25;5.30;1.00
3876;DHT22;1953;51.222;6.624;2023-02-28T10:20:11;5.30;1.00
3876;DHT22;1953;51.222;6.624;2023-02-28T10:24:57;5.40;1.00
3876;DHT22;1953;51.222;6.624;2023-02-28T10:29:46;5.40;1.00
3876;DHT22;1953;51.222;6.624;2023-02-28T10:34:29;5.50;1.00
3876;DHT22;1953;51.222;6.624;2023-02-28T10:39:34;5.30;1.00
3876;DHT22;1953;51.222;6.624;2023-02-28T10:44:20;5.50;1.00
3876;DHT22;1953;51.222;6.624;2023-02-28T10:49:06;5.70;1.00
3876;DHT22;1953;51.222;6.624;2023-02-28T10:53:55;5.80;1.00
3876;DHT22;1953;51.222;6.624;2023-02-28T10:58:47;6.00;1.00
3876;DHT22;1953;51.222;6.624;2023-02-28T11:03:32;6.20;1.00
3876;DHT22;1953;51.222;6.624;2023-02-28T11:08:18;6.20;1.00
3876;DHT22;1953;51.222;6.624;2023-02-28T11:13:01;6.10;1.00
3876;DHT22;1953;51.222;6.624;2023-02-28T11:17:53;5.90;1.00
3876;DHT22;1953;51.222;6.624;2023-02-28T11:22:38;5.90;1.00
3876;DHT22;1953;51.222;6.624;2023-02-28T11:27:46;5.90;1.00
3876;DHT22;1953;51.222;6.624;2023-02-28T11:32:30;5.80;1.00
3876;DHT22;1953;51.222;6.624;2023-02-28T11:37:15;5.70;1.00
3876;DHT22;1953;51.222;6.624;2023-02-28T11:42:12;5.90;1.00
3876;DHT22;1953;51.222;6.624;2023-02-28T11:47:05;5.80;1.00
3876;DHT22;1953;51.222;6.624;2023-02-28T11:51:55;5.80;1.00
3876;DHT22;1953;51.222;6.624;2023-02-28T11:56:42;6.00;1.00
3876;DHT22;1953;51.222;6.624;2023-02-28T12:01:33;6.20;1.00
3876;DHT22;1953;51.222;6.624;2023-02-28T12:11:06;6.50;1.00
3876;DHT22;1953;51.222;6.624;2023-02-28T12:16:21;6.50;1.00
3876;DHT22;1953;51.222;6.624;2023-02-28T12:21:15;6.70;1.00
3876;DHT22;1953;51.222;6.624;2023-02-28T12:26:06;6.90;1.00
3876;DHT22;1953;51.222;6.624;2023-02-28T12:30:56;7.00;1.00
3876;DHT22;1953;51.222;6.624;2023-02-28T12:35:44;6.70;1.00
3876;DHT22;1953;51.222;6.624;2023-02-28T12:40:39;6.70;1.00
3876;DHT22;1953;51.222;6.624;2023-02-28T12:45:29;6.70;1.00
3876;DHT22;1953;51.222;6.624;2023-02-28T12:50:14;6.70;1.00
3876;DHT22;1953;51.222;6.624;2023-02-28T12:55:02;7.30;1.00
3876;DHT22;1953;51.222;6.624;2023-02-28T12:59:49;8.00;1.00
3876;DHT22;1953;51.222;6.624;2023-02-28T13:09:39;9.30;1.00
3876;DHT22;1953;51.222;6.624;2023-02-28T13:14:25;9.70;1.00
3876;DHT22;1953;51.222;6.624;2023-02-28T13:19:10;10.30;1.00
3876;DHT22;1953;51.222;6.624;2023-02-28T13:24:00;10.50;1.00
3876;DHT22;1953;51.222;6.624;2023-02-28T13:28:58;10.70;1.00
3876;DHT22;1953;51.222;6.624;2023-02-28T13:34:12;11.00;1.00
3876;DHT22;1953;51.222;6.624;2023-02-28T13:38:55;10.90;1.00
3876;DHT22;1953;51.222;6.624;2023-02-28T13:44:03;11.10;1.00
3876;DHT22;1953;51.222;6.624;2023-02-28T13:48:47;11.40;1.00
3876;DHT22;1953;51.222;6.624;2023-02-28T13:53:54;10.90;1.00
3876;DHT22;1953;51.222;6.624;2023-02-28T13:58:43;11.00;1.00
3876;DHT22;1953;51.222;6.624;2023-02-28T14:03:38;11.00;1.00
3876;DHT22;1953;51.222;6.624;2023-02-28T14:08:24;11.10;1.00
3876;DHT22;1953;51.222;6.624;2023-02-28T14:18:29;10.80;1.00
3876;DHT22;1953;51.222;6.624;2023-02-28T14:23:19;11.10;1.00
3876;DHT22;1953;51.222;6.624;2023-02-28T14:28:14;10.60;1.00
3876;DHT22;1953;51.222;6.624;2023-02-28T14:33:11;10.60;1.00
3876;DHT22;1953;51.222;6.624;2023-02-28T14:37:58;10.60;1.00
3876;DHT22;1953;51.222;6.624;2023-02-28T14:42:47;10.90;1.00
3876;DHT22;1953;51.222;6.624;2023-02-28T14:47:31;11.10;1.00
3876;DHT22;1953;51.222;6.624;2023-02-28T14:52:17;11.20;1.00
3876;DHT22;1953;51.222;6.624;2023-02-28T14:57:01;11.40;1.00
3876;DHT22;1953;51.222;6.624;2023-02-28T15:01:45;11.50;1.00
3876;DHT22;1953;51.222;6.624;2023-02-28T15:06:27;11.40;1.00
3876;DHT22;1953;51.222;6.624;2023-02-28T15:11:13;11.40;1.00
3876;DHT22;1953;51.222;6.624;2023-02-28T15:16:00;11.30;1.00
3876;DHT22;1953;51.222;6.624;2023-02-28T15:20:45;11.30;1.00
3876;DHT22;1953;51.222;6.624;2023-02-28T15:25:28;11.50;1.00
3876;DHT22;1953;51.222;6.624;2023-02-28T15:30:15;11.50;1.00
3876;DHT22;1953;51.222;6.624;2023-02-28T15:35:16;11.90;1.00
3876;DHT22;1953;51.222;6.624;2023-02-28T15:40:12;11.70;1.00
3876;DHT22;1953;51.222;6.624;2023-02-28T15:44:55;11.70;1.00
3876;DHT22;1953;51.222;6.624;2023-02-28T15:49:44;11.80;1.00
3876;DHT22;1953;51.222;6.624;2023-02-28T15:54:29;11.90;1.00
3876;DHT22;1953;51.222;6.624;2023-02-28T15:59:18;12.10;1.00
3876;DHT22;1953;51.222;6.624;2023-02-28T16:04:03;11.80;1.00
3876;DHT22;1953;51.222;6.624;2023-02-28T16:08:46;11.50;1.00
3876;DHT22;1953;51.222;6.624;2023-02-28T16:13:30;11.00;1.00
3876;DHT22;1953;51.222;6.624;2023-02-28T16:18:13;10.80;1.00
3876;DHT22;1953;51.222;6.624;2023-02-28T16:22:56;10.60;1.00
3876;DHT22;1953;51.222;6.624;2023-02-28T16:27:43;10.20;1.00
3876;DHT22;1953;51.222;6.624;2023-02-28T16:32:26;9.60;1.00
3876;DHT22;1953;51.222;6.624;2023-02-28T16:37:12;9.10;1.00
3876;DHT22;1953;51.222;6.624;2023-02-28T16:41:55;8.90;1.00
3876;DHT22;1953;51.222;6.624;2023-02-28T16:46:37;8.70;1.00
3876;DHT22;1953;51.222;6.624;2023-02-28T16:51:20;8.40;1.00
3876;DHT22;1953;51.222;6.624;2023-02-28T16:56:04;8.20;1.00
3876;DHT22;1953;51.222;6.624;2023-02-28T17:00:47;8.00;1.00
3876;DHT22;1953;51.222;6.624;2023-02-28T17:05:34;7.80;1.00
3876;DHT22;1953;51.222;6.624;2023-02-28T17:10:20;7.70;1.00
3876;DHT22;1953;51.222;6.624;2023-02-28T17:15:06;7.40;1.00
3876;DHT22;1953;51.222;6.624;2023-02-28T17:19:49;7.30;1.00
3876;DHT22;1953;51.222;6.624;2023-02-28T17:24:31;7.20;1.00
3876;DHT22;1953;51.222;6.624;2023-02-28T17:29:15;7.10;1.00
3876;DHT22;1953;51.222;6.624;2023-02-28T17:33:59;7.00;1.00
3876;DHT22;1953;51.222;6.624;2023-02-28T17:38:43;6.90;1.00
3876;DHT22;1953;51.222;6.624;2023-02-28T17:43:25;6.80;1.00
3876;DHT22;1953;51.222;6.624;2023-02-28T17:48:09;6.60;1.00
3876;DHT22;1953;51.222;6.624;2023-02-28T17:52:54;6.60;1.00
3876;DHT22;1953;51.222;6.624;2023-02-28T17:57:37;6.50;1.00
3876;DHT22;1953;51.222;6.624;2023-02-28T18:02:20;6.30;1.00
3876;DHT22;1953;51.222;6.624;2023-02-28T18:07:02;6.20;1.00
3876;DHT22;1953;51.222;6.624;2023-02-28T18:11:46;6.10;1.00
3876;DHT22;1953;51.222;6.624;2023-02-28T18:16:29;6.00;1.00
3876;DHT22;1953;51.222;6.624;2023-02-28T18:21:13;5.90;1.00
3876;DHT22;1953;51.222;6.624;2023-02-28T18:25:56;5.80;1.00
3876;DHT22;1953;51.222;6.624;2023-02-28T18:30:40;5.80;1.00
3876;DHT22;1953;51.222;6.624;2023-02-28T18:35:22;5.70;1.00
3876;DHT22;1953;51.222;6.624;2023-02-28T18:40:15;5.60;1.00
3876;DHT22;1953;51.222;6.624;2023-02-28T18:44:58;5.50;1.00
3876;DHT22;1953;51.222;6.624;2023-02-28T18:49:42;5.50;1.00
3876;DHT22;1953;51.222;6.624;2023-02-28T18:54:24;5.40;1.00
3876;DHT22;1953;51.222;6.624;2023-02-28T18:59:07;5.40;1.00
3876;DHT22;1953;51.222;6.624;2023-02-28T19:03:51;5.30;1.00
3876;DHT22;1953;51.222;6.624;2023-02-28T19:08:35;5.20;1.00
3876;DHT22;1953;51.222;6.624;2023-02-28T19:13:18;5.10;1.00
3876;DHT22;1953;51.222;6.624;2023-02-28T19:18:01;5.10;1.00
3876;DHT22;1953;51.222;6.624;2023-02-28T19:22:44;5.00;1.00
3876;DHT22;1953;51.222;6.624;2023-02-28T19:27:28;5.00;1.00
3876;DHT22;1953;51.222;6.624;2023-02-28T19:32:10;4.90;1.00
3876;DHT22;1953;51.222;6.624;2023-02-28T19:36:52;4.80;1.00
3876;DHT22;1953;51.222;6.624;2023-02-28T19:41:35;4.80;1.00
3876;DHT22;1953;51.222;6.624;2023-02-28T19:46:19;4.70;1.00
3876;DHT22;1953;51.222;6.624;2023-02-28T19:51:03;4.70;1.00
3876;DHT22;1953;51.222;6.624;2023-02-28T19:55:46;4.60;1.00
3876;DHT22;1953;51.222;6.624;2023-02-28T20:00:28;4.40;1.00
3876;DHT22;1953;51.222;6.624;2023-02-28T20:05:12;4.40;1.00
3876;DHT22;1953;51.222;6.624;2023-02-28T20:09:55;4.30;1.00
3876;DHT22;1953;51.222;6.624;2023-02-28T20:14:37;4.20;1.00
3876;DHT22;1953;51.222;6.624;2023-02-28T20:19:19;4.20;1.00
3876;DHT22;1953;51.222;6.624;2023-02-28T20:24:04;4.10;1.00
3876;DHT22;1953;51.222;6.624;2023-02-28T20:28:47;4.10;1.00
3876;DHT22;1953;51.222;6.624;2023-02-28T20:33:29;4.10;1.00
3876;DHT22;1953;51.222;6.624;2023-02-28T20:38:12;4.00;1.00
3876;DHT22;1953;51.222;6.624;2023-02-28T20:42:55;4.00;1.00
3876;DHT22;1953;51.222;6.624;2023-02-28T20:47:38;3.90;1.00
3876;DHT22;1953;51.222;6.624;2023-02-28T20:52:22;3.90;1.00
3876;DHT22;1953;51.222;6.624;2023-02-28T20:57:04;3.90;1.00
3876;DHT22;1953;51.222;6.624;2023-02-28T21:01:48;3.80;1.00
3876;DHT22;1953;51.222;6.624;2023-02-28T21:06:32;3.80;1.00
3876;DHT22;1953;51.222;6.624;2023-02-28T21:11:18;3.80;1.00
3876;DHT22;1953;51.222;6.624;2023-02-28T21:16:02;3.70;1.00
3876;DHT22;1953;51.222;6.624;2023-02-28T21:20:46;3.80;1.00
3876;DHT22;1953;51.222;6.624;2023-02-28T21:25:29;3.80;1.00
3876;DHT22;1953;51.222;6.624;2023-02-28T21:30:12;3.70;1.00
3876;DHT22;1953;51.222;6.624;2023-02-28T21:34:54;3.70;1.00
3876;DHT22;1953;51.222;6.624;2023-02-28T21:39:38;3.60;1.00
3876;DHT22;1953;51.222;6.624;2023-02-28T21:44:20;3.60;1.00
3876;DHT22;1953;51.222;6.624;2023-02-28T21:49:03;3.50;1.00
3876;DHT22;1953;51.222;6.624;2023-02-28T21:53:45;3.50;1.00
3876;DHT22;1953;51.222;6.624;2023-02-28T21:58:29;3.40;1.00
3876;DHT22;1953;51.222;6.624;2023-02-28T22:03:12;3.40;1.00
3876;DHT22;1953;51.222;6.624;2023-02-28T22:07:54;3.40;1.00
3876;DHT22;1953;51.222;6.624;2023-02-28T22:12:37;3.30;1.00
3876;DHT22;1953;51.222;6.624;2023-02-28T22:17:21;3.30;1.00
3876;DHT22;1953;51.222;6.624;2023-02-28T22:22:03;3.20;1.00
3876;DHT22;1953;51.222;6.624;2023-02-28T22:26:47;3.20;1.00
3876;DHT22;1953;51.222;6.624;2023-02-28T22:31:31;3.10;1.00
3876;DHT22;1953;51.222;6.624;2023-02-28T22:36:16;3.00;1.00
3876;DHT22;1953;51.222;6.624;2023-02-28T22:40:59;3.00;1.00
3876;DHT22;1953;51.222;6.624;2023-02-28T22:45:41;3.00;1.00
3876;DHT22;1953;51.222;6.624;2023-02-28T22:50:24;3.00;1.00
3876;DHT22;1953;51.222;6.624;2023-02-28T22:55:10;2.90;1.00
3876;DHT22;1953;51.222;6.624;2023-02-28T22:59:52;2.90;1.00
3876;DHT22;1953;51.222;6.624;2023-02-28T23:04:35;2.80;1.00
3876;DHT22;1953;51.222;6.624;2023-02-28T23:09:17;2.80;1.00
3876;DHT22;1953;51.222;6.624;2023-02-28T23:14:03;2.70;1.00
3876;DHT22;1953;51.222;6.624;2023-02-28T23:18:45;2.70;1.00
3876;DHT22;1953;51.222;6.624;2023-02-28T23:23:28;2.70;1.00
3876;DHT22;1953;51.222;6.624;2023-02-28T23:28:10;2.60;1.00
3876;DHT22;1953;51.222;6.624;2023-02-28T23:32:54;2.50;1.00
3876;DHT22;1953;51.222;6.624;2023-02-28T23:37:38;2.50;1.00
3876;DHT22;1953;51.222;6.624;2023-02-28T23:42:20;2.40;1.00
3876;DHT22;1953;51.222;6.624;2023-02-28T23:47:03;2.40;1.00
3876;DHT22;1953;51.222;6.624;2023-02-28T23:51:48;2.30;1.00
3876;DHT22;1953;51.222;6.624;2023-02-28T23:56:31;2.30;1.00
